Time;durP1;ratioP1;P1;durP2;ratioP2;P2;SDS_P1;SDS_P2;PMS_P1;PMS_P2;Temp;Humidity;BMP_temperature;BMP_pressure;BME280_temperature;BME280_humidity;BME280_pressure;Samples;Min_cycle;Max_cycle;Signal;HPM_P1;HPM_P2
2022/09/16 00:01:17;;;;;;;6.93;1.40;;;10.40;1.00;;;;;;5031641;28;20029;-58
2022/09/16 00:03:43;;;;;;;5.45;1.50;;;10.80;1.00;;;;;;5030915;28;20041;-59
2022/09/16 00:06:21;;;;;;;7.97;1.60;;;10.40;1.00;;;;;;5031047;28;20037;-60
2022/09/16 00:08:48;;;;;;;5.93;1.30;;;11.20;1.00;;;;;;5030600;28;20048;-58
2022/09/16 00:11:14;;;;;;;6.82;1.23;;;;;;;;;;5031521;28;20045;-60
2022/09/16 00:13:40;;;;;;;9.27;1.50;;;10.90;1.00;;;;;;5030743;28;20464;-60
2022/09/16 00:16:08;;;;;;;8.25;1.60;;;10.50;1.00;;;;;;5030072;28;20094;-57
2022/09/16 00:18:34;;;;;;;9.48;1.73;;;10.60;1.00;;;;;;5028114;28;20049;-60
2022/09/16 00:20:59;;;;;;;8.85;1.60;;;10.50;1.00;;;;;;5031316;28;20030;-60
2022/09/16 00:23:25;;;;;;;8.23;1.35;;;11.90;1.00;;;;;;5031135;28;20484;-60
2022/09/16 00:25:52;;;;;;;8.32;1.65;;;11.40;1.00;;;;;;5029909;28;20044;-60
2022/09/16 00:28:20;;;;;;;7.18;1.83;;;10.80;1.00;;;;;;5030578;28;20091;-60
2022/09/16 00:30:47;;;;;;;11.02;1.90;;;11.20;1.00;;;;;;5029349;28;20041;-57
2022/09/16 00:33:12;;;;;;;6.18;1.40;;;11.30;1.00;;;;;;5030655;28;20570;-58
2022/09/16 00:35:38;;;;;;;14.25;2.40;;;10.80;1.00;;;;;;5005317;28;20041;-60
2022/09/16 00:38:04;;;;;;;9.35;1.60;;;11.50;1.00;;;;;;5030203;28;20040;-54
2022/09/16 00:40:29;;;;;;;12.23;2.08;;;11.10;1.00;;;;;;5027849;28;20397;-61
2022/09/16 00:42:55;;;;;;;7.13;2.03;;;10.80;1.00;;;;;;5030852;28;20087;-60
2022/09/16 00:45:23;;;;;;;8.40;1.70;;;10.80;1.00;;;;;;5026926;28;20043;-60
2022/09/16 00:47:58;;;;;;;6.50;1.50;;;11.20;1.00;;;;;;5011034;28;20054;-58
2022/09/16 00:50:42;;;;;;;7.90;1.75;;;10.80;1.00;;;;;;5030385;28;20495;-59
2022/09/16 00:53:13;;;;;;;6.50;1.50;;;11.30;1.00;;;;;;5016283;28;20099;-61
2022/09/16 00:55:39;;;;;;;4.70;1.40;;;10.50;1.00;;;;;;5030357;28;20037;-61
2022/09/16 00:58:14;;;;;;;7.03;1.40;;;11.40;1.00;;;;;;5011985;28;20033;-58
2022/09/16 01:00:40;;;;;;;5.70;1.33;;;10.70;1.00;;;;;;5030552;28;20060;-60
2022/09/16 01:03:06;;;;;;;5.63;1.67;;;11.00;1.00;;;;;;5030400;28;20037;-61
2022/09/16 01:05:32;;;;;;;8.55;1.42;;;11.00;1.00;;;;;;5016515;28;20042;-58
2022/09/16 01:07:58;;;;;;;9.23;1.70;;;11.40;1.00;;;;;;5019678;28;20046;-60
2022/09/16 01:10:25;;;;;;;7.03;1.50;;;10.80;1.00;;;;;;5030070;28;20044;-56
2022/09/16 01:12:55;;;;;;;10.07;1.50;;;10.80;1.00;;;;;;5028828;28;20440;-60
2022/09/16 01:15:30;;;;;;;5.93;1.38;;;11.00;1.00;;;;;;5030220;28;20033;-60
2022/09/16 01:18:04;;;;;;;6.72;1.70;;;10.50;1.00;;;;;;5018791;28;20110;-59
2022/09/16 01:20:57;;;;;;;9.98;1.60;;;10.60;1.00;;;;;;5029891;28;20427;-59
2022/09/16 01:24:02;;;;;;;11.63;1.67;;;11.20;1.00;;;;;;5030180;28;20048;-62
2022/09/16 01:26:58;;;;;;;9.77;1.60;;;11.30;1.00;;;;;;5026998;28;20037;-61
2022/09/16 01:30:01;;;;;;;8.70;1.63;;;11.40;1.00;;;;;;5016667;28;20303;-61
2022/09/16 01:32:26;;;;;;;8.48;1.50;;;11.00;1.00;;;;;;5028920;28;20073;-60
2022/09/16 01:35:03;;;;;;;4.53;1.40;;;10.90;1.00;;;;;;5029747;28;20073;-63
2022/09/16 01:37:56;;;;;;;5.95;1.55;;;10.90;1.00;;;;;;5028587;28;20049;-61
2022/09/16 01:40:56;;;;;;;9.10;2.28;;;10.90;1.00;;;;;;5030297;28;20033;-58
2022/09/16 01:43:49;;;;;;;7.32;1.42;;;11.20;1.00;;;;;;5018602;28;20116;-61
2022/09/16 01:46:30;;;;;;;15.00;4.50;;;11.40;1.00;;;;;;5029247;28;20041;-57
2022/09/16 01:49:18;;;;;;;8.30;1.48;;;11.70;1.00;;;;;;5028762;28;20045;-60
2022/09/16 01:52:12;;;;;;;7.40;1.50;;;10.90;1.00;;;;;;5018494;28;20049;-59
2022/09/16 01:54:44;;;;;;;8.50;1.70;;;11.00;1.00;;;;;;5005071;28;20065;-60
2022/09/16 01:57:16;;;;;;;5.57;1.30;;;10.80;1.00;;;;;;5029353;28;20048;-57
2022/09/16 01:59:54;;;;;;;7.05;1.50;;;11.00;1.00;;;;;;5029887;28;20057;-61
2022/09/16 02:02:25;;;;;;;8.63;1.40;;;11.50;1.00;;;;;;5017736;28;20044;-58
2022/09/16 02:04:57;;;;;;;6.15;1.33;;;10.80;1.00;;;;;;5027051;28;20089;-57
2022/09/16 02:07:29;;;;;;;8.38;1.88;;;10.60;1.00;;;;;;5029224;28;20034;-58
2022/09/16 02:10:00;;;;;;;7.45;1.52;;;11.10;1.00;;;;;;5029889;28;20038;-59
2022/09/16 02:12:32;;;;;;;8.43;1.60;;;10.90;1.00;;;;;;5029601;28;20108;-59
2022/09/16 02:15:04;;;;;;;6.78;1.50;;;11.10;1.00;;;;;;5023965;28;20034;-56
2022/09/16 02:17:34;;;;;;;8.57;1.70;;;11.60;1.00;;;;;;5021823;28;20039;-58
2022/09/16 02:20:14;;;;;;;7.70;1.50;;;10.90;1.00;;;;;;5015991;28;20065;-60
2022/09/16 02:22:47;;;;;;;5.95;1.42;;;11.40;1.00;;;;;;5023708;28;20108;-61
2022/09/16 02:25:17;;;;;;;11.32;1.40;;;10.50;1.00;;;;;;5089648;22;20057;-61
2022/09/16 02:27:46;;;;;;;6.97;1.60;;;;;;;;;;5015385;28;20048;-63
2022/09/16 02:30:16;;;;;;;9.25;1.52;;;10.00;1.00;;;;;;5031054;28;20466;-61
2022/09/16 02:32:46;;;;;;;6.78;2.65;;;10.30;1.00;;;;;;5012929;28;20048;-62
2022/09/16 02:35:17;;;;;;;7.28;1.67;;;10.70;1.00;;;;;;5024493;28;20042;-61
2022/09/16 02:37:50;;;;;;;8.60;1.88;;;10.50;1.00;;;;;;5026805;28;20495;-62
2022/09/16 02:40:27;;;;;;;9.15;1.80;;;11.20;1.00;;;;;;5032956;28;20406;-65
2022/09/16 02:42:53;;;;;;;12.23;2.17;;;10.80;1.00;;;;;;5022413;28;20038;-63
2022/09/16 02:45:25;;;;;;;5.63;1.65;;;9.90;1.00;;;;;;5017510;28;20044;-63
2022/09/16 02:48:23;;;;;;;8.15;1.50;;;10.50;1.00;;;;;;5020369;28;20046;-64
2022/09/16 02:50:57;;;;;;;9.35;1.40;;;10.00;1.00;;;;;;5007310;28;20064;-64
2022/09/16 02:53:41;;;;;;;5.53;1.52;;;;;;;;;;5012609;28;20567;-64
2022/09/16 02:56:14;;;;;;;12.30;1.83;;;;;;;;;;5013507;28;20450;-63
2022/09/16 02:58:40;;;;;;;8.35;1.85;;;10.50;1.00;;;;;;4997957;28;20042;-65
2022/09/16 03:01:06;;;;;;;11.13;1.83;;;9.80;1.00;;;;;;5023002;28;20032;-64
2022/09/16 03:03:32;;;;;;;10.20;2.13;;;;;;;;;;5017663;28;20076;-63
2022/09/16 03:06:34;;;;;;;9.07;2.38;;;;;;;;;;5018943;28;20034;-64
2022/09/16 03:09:04;;;;;;;9.30;1.85;;;9.70;1.00;;;;;;4962381;28;20056;-63
2022/09/16 03:11:41;;;;;;;10.57;1.70;;;9.80;1.00;;;;;;5021515;28;20076;-65
2022/09/16 03:14:19;;;;;;;12.95;1.73;;;;;;;;;;5012732;28;20042;-65
2022/09/16 03:16:52;;;;;;;11.23;3.08;;;;;;;;;;5017520;28;20507;-65
2022/09/16 03:19:43;;;;;;;12.98;1.98;;;10.20;1.00;;;;;;5027141;28;20465;-65
2022/09/16 03:22:26;;;;;;;8.27;2.08;;;;;;;;;;5022868;28;20044;-64
2022/09/16 03:25:05;;;;;;;10.90;1.75;;;;;;;;;;5019095;28;20526;-65
2022/09/16 03:27:38;;;;;;;10.30;2.00;;;;;;;;;;5018786;28;20045;-65
2022/09/16 03:30:08;;;;;;;10.77;2.30;;;;;;;;;;5019176;28;20045;-64
2022/09/16 03:32:40;;;;;;;10.23;2.22;;;10.50;1.00;;;;;;5020339;28;20052;-65
2022/09/16 03:35:08;;;;;;;12.50;2.42;;;10.40;1.00;;;;;;5025605;28;20037;-66
2022/09/16 03:37:36;;;;;;;12.35;2.22;;;10.40;1.00;;;;;;5018939;28;20038;-66
2022/09/16 03:40:08;;;;;;;9.82;1.80;;;10.80;1.00;;;;;;5019723;28;20057;-66
2022/09/16 03:42:34;;;;;;;20.95;3.45;;;10.60;1.00;;;;;;5017297;28;20038;-66
2022/09/16 03:45:00;;;;;;;9.95;1.90;;;9.90;1.00;;;;;;5018683;28;20033;-66
2022/09/16 03:47:25;;;;;;;9.07;1.88;;;10.60;1.00;;;;;;5014995;28;20040;-66
2022/09/16 03:49:51;;;;;;;13.45;2.88;;;10.50;1.00;;;;;;5020455;28;20030;-67
2022/09/16 03:52:18;;;;;;;13.82;2.78;;;;;;;;;;5013014;28;20492;-66
2022/09/16 03:54:44;;;;;;;14.32;1.95;;;9.80;1.00;;;;;;5017531;28;20160;-67
2022/09/16 03:57:09;;;;;;;9.52;2.20;;;10.30;1.00;;;;;;5018879;28;20708;-67
2022/09/16 03:59:36;;;;;;;12.30;2.20;;;;;;;;;;4999634;28;20037;-67
2022/09/16 04:02:01;;;;;;;11.95;2.20;;;10.20;1.00;;;;;;5018192;28;20044;-67
2022/09/16 04:04:27;;;;;;;13.98;2.60;;;10.70;1.00;;;;;;5015470;28;20041;-67
2022/09/16 04:06:52;;;;;;;9.52;2.08;;;10.20;1.00;;;;;;5017158;28;20041;-66
2022/09/16 04:09:18;;;;;;;13.13;1.98;;;10.00;1.00;;;;;;5012490;28;20044;-67
2022/09/16 04:11:44;;;;;;;14.25;3.58;;;10.00;1.00;;;;;;5017540;28;20117;-67
2022/09/16 04:14:09;;;;;;;10.40;1.80;;;10.30;1.00;;;;;;5018909;28;20042;-67
2022/09/16 04:16:35;;;;;;;9.55;2.15;;;10.30;1.00;;;;;;5016609;28;20033;-67
2022/09/16 04:19:01;;;;;;;11.82;1.80;;;9.30;1.00;;;;;;4999017;28;20041;-66
2022/09/16 04:21:28;;;;;;;9.07;1.60;;;;;;;;;;4997755;28;20095;-67
2022/09/16 04:23:54;;;;;;;10.30;1.80;;;10.20;1.00;;;;;;5006809;28;20042;-67
2022/09/16 04:26:20;;;;;;;7.20;1.40;;;9.60;1.00;;;;;;5015153;28;20037;-67
2022/09/16 04:28:49;;;;;;;9.07;1.95;;;9.70;1.00;;;;;;5026847;28;20083;-65
2022/09/16 04:31:15;;;;;;;7.82;1.38;;;9.80;1.00;;;;;;5030544;28;20461;-65
2022/09/16 04:33:41;;;;;;;6.82;1.38;;;9.80;1.00;;;;;;5029113;28;20045;-64
2022/09/16 04:36:11;;;;;;;9.43;1.70;;;9.30;1.00;;;;;;5031028;28;20057;-64
2022/09/16 04:38:38;;;;;;;8.45;1.80;;;9.70;1.00;;;;;;5029895;28;20072;-64
2022/09/16 04:41:13;;;;;;;6.93;1.40;;;;;;;;;;5012911;28;20042;-65
2022/09/16 04:43:42;;;;;;;8.23;1.55;;;9.90;1.00;;;;;;5024301;28;20089;-64
2022/09/16 04:46:11;;;;;;;9.68;1.67;;;9.60;1.00;;;;;;5018178;28;20037;-63
2022/09/16 04:48:40;;;;;;;6.80;2.28;;;;;;;;;;5019998;28;20048;-64
2022/09/16 04:51:07;;;;;;;12.32;2.60;;;;;;;;;;5014561;28;20100;-64
2022/09/16 04:53:34;;;;;;;10.27;2.20;;;9.80;1.00;;;;;;5011393;28;20091;-64
2022/09/16 04:56:07;;;;;;;9.57;2.25;;;9.80;1.00;;;;;;5020344;28;20041;-64
2022/09/16 04:58:34;;;;;;;8.75;1.85;;;;;;;;;;5012959;28;20041;-64
2022/09/16 05:01:11;;;;;;;11.20;2.25;;;10.30;1.00;;;;;;5017191;28;20067;-63
2022/09/16 05:03:44;;;;;;;13.38;2.15;;;10.10;1.00;;;;;;5017044;28;20056;-65
2022/09/16 05:06:14;;;;;;;8.00;1.88;;;;;;;;;;5019538;28;20112;-65
2022/09/16 05:08:43;;;;;;;8.95;1.50;;;;;;;;;;5016822;28;20189;-65
2022/09/16 05:11:17;;;;;;;7.72;1.92;;;9.90;1.00;;;;;;5017192;28;20052;-65
2022/09/16 05:13:43;;;;;;;11.37;2.20;;;10.40;1.00;;;;;;5015572;28;20060;-65
2022/09/16 05:16:11;;;;;;;9.65;1.85;;;10.20;1.00;;;;;;5018791;28;20487;-66
2022/09/16 05:18:38;;;;;;;7.90;1.90;;;10.50;1.00;;;;;;5018459;28;20087;-66
2022/09/16 05:21:05;;;;;;;10.48;1.65;;;;;;;;;;5022140;28;20396;-66
2022/09/16 05:23:31;;;;;;;10.98;1.60;;;10.50;1.00;;;;;;5026543;28;20045;-65
2022/09/16 05:26:02;;;;;;;5.90;1.63;;;;;;;;;;5011910;28;20037;-66
2022/09/16 05:28:28;;;;;;;14.65;1.85;;;;;;;;;;5011678;28;20411;-65
2022/09/16 05:30:53;;;;;;;8.73;1.80;;;10.40;1.00;;;;;;5018129;28;20045;-64
2022/09/16 05:33:19;;;;;;;8.52;2.00;;;10.50;1.00;;;;;;5019338;28;20076;-66
2022/09/16 05:35:45;;;;;;;14.18;3.08;;;10.80;1.00;;;;;;5016573;28;20037;-66
2022/09/16 05:38:12;;;;;;;10.68;2.08;;;10.40;1.00;;;;;;5022114;28;20395;-65
2022/09/16 05:40:37;;;;;;;10.02;2.25;;;10.50;1.00;;;;;;4999785;28;20091;-66
2022/09/16 05:43:03;;;;;;;8.48;2.35;;;10.60;1.00;;;;;;4994859;28;20455;-65
2022/09/16 05:45:29;;;;;;;7.43;1.85;;;11.00;1.00;;;;;;5025158;28;20038;-65
2022/09/16 05:47:54;;;;;;;8.10;1.40;;;11.00;1.00;;;;;;5029992;28;20502;-65
2022/09/16 05:50:20;;;;;;;7.53;1.63;;;10.70;1.00;;;;;;5030306;28;20042;-65
2022/09/16 05:52:45;;;;;;;10.63;2.00;;;10.80;1.00;;;;;;5028486;28;20411;-65
2022/09/16 05:55:11;;;;;;;9.25;2.10;;;10.80;1.00;;;;;;5007374;28;20462;-64
2022/09/16 05:57:37;;;;;;;7.15;2.20;;;10.70;1.00;;;;;;5029656;28;20037;-65
2022/09/16 06:00:05;;;;;;;10.70;2.30;;;;;;;;;;5030004;28;20499;-65
2022/09/16 06:02:30;;;;;;;9.80;1.83;;;10.80;1.00;;;;;;5026449;28;20116;-64
2022/09/16 06:04:56;;;;;;;6.68;1.65;;;10.60;1.00;;;;;;5030494;28;20506;-65
2022/09/16 06:07:22;;;;;;;10.30;1.98;;;11.00;1.00;;;;;;5033919;28;20578;-64
2022/09/16 06:09:48;;;;;;;9.38;2.47;;;11.00;1.00;;;;;;5012826;28;20045;-64
2022/09/16 06:12:14;;;;;;;11.85;2.63;;;11.20;1.00;;;;;;5028907;28;20146;-64
2022/09/16 06:14:39;;;;;;;12.80;3.08;;;11.20;1.00;;;;;;5033951;28;20033;-64
2022/09/16 06:17:05;;;;;;;12.85;2.75;;;11.00;1.00;;;;;;5033160;28;20029;-63
2022/09/16 06:19:30;;;;;;;11.40;2.10;;;11.20;1.00;;;;;;5033766;28;20403;-64
2022/09/16 06:21:56;;;;;;;13.23;2.20;;;11.20;1.00;;;;;;5034204;28;20088;-64
2022/09/16 06:24:22;;;;;;;10.93;2.20;;;11.30;1.00;;;;;;5033614;28;20041;-64
2022/09/16 06:26:48;;;;;;;8.35;1.90;;;10.80;1.00;;;;;;5025590;28;20049;-63
2022/09/16 06:29:14;;;;;;;7.97;1.88;;;11.00;1.00;;;;;;5034114;28;20045;-64
2022/09/16 06:31:41;;;;;;;11.27;2.00;;;11.20;1.00;;;;;;5014629;28;20064;-63
2022/09/16 06:34:10;;;;;;;7.13;1.50;;;11.70;1.00;;;;;;5024632;28;20517;-65
2022/09/16 06:36:38;;;;;;;9.63;1.77;;;11.20;1.00;;;;;;5033820;28;20045;-64
2022/09/16 06:39:04;;;;;;;6.82;1.80;;;12.20;1.00;;;;;;5032519;28;20402;-63
2022/09/16 06:41:32;;;;;;;11.02;2.03;;;11.90;1.00;;;;;;5027522;28;20034;-63
2022/09/16 06:43:58;;;;;;;13.55;1.83;;;12.50;1.00;;;;;;5029955;28;20439;-63
2022/09/16 06:46:26;;;;;;;9.45;1.73;;;12.50;1.00;;;;;;5033132;28;20116;-63
2022/09/16 06:48:55;;;;;;;6.72;1.40;;;12.10;1.00;;;;;;5033051;28;20041;-63
2022/09/16 06:51:25;;;;;;;9.25;1.60;;;12.00;1.00;;;;;;5033425;28;20044;-62
2022/09/16 06:53:55;;;;;;;12.27;2.53;;;12.80;1.00;;;;;;5033364;28;20056;-63
2022/09/16 06:56:21;;;;;;;12.68;2.97;;;12.70;1.00;;;;;;5029063;28;20179;-63
2022/09/16 06:58:51;;;;;;;7.40;1.83;;;12.30;1.00;;;;;;5009450;28;20091;-62
2022/09/16 07:01:20;;;;;;;9.77;2.22;;;11.70;1.00;;;;;;5030107;28;20505;-63
2022/09/16 07:03:48;;;;;;;9.85;2.40;;;12.30;1.00;;;;;;5032539;28;20034;-63
2022/09/16 07:06:15;;;;;;;11.98;1.95;;;;;;;;;;5028866;28;20029;-62
2022/09/16 07:08:41;;;;;;;11.32;1.95;;;12.30;99.90;;;;;;5031552;28;20053;-62
2022/09/16 07:11:12;;;;;;;8.98;2.05;;;12.30;99.90;;;;;;5027725;28;20076;-62
2022/09/16 07:13:38;;;;;;;14.65;2.65;;;12.40;99.90;;;;;;5012639;28;20120;-63
2022/09/16 07:16:07;;;;;;;11.52;1.95;;;12.60;99.90;;;;;;5026112;28;20044;-63
2022/09/16 07:18:33;;;;;;;7.10;1.80;;;12.40;99.90;;;;;;5014663;28;20099;-60
2022/09/16 07:21:12;;;;;;;13.38;2.97;;;13.00;99.90;;;;;;5026571;28;20099;-62
2022/09/16 07:23:38;;;;;;;8.73;1.77;;;12.60;99.90;;;;;;5025238;28;20052;-63
2022/09/16 07:26:04;;;;;;;9.05;2.00;;;;;;;;;;5026289;28;20044;-62
2022/09/16 07:28:31;;;;;;;10.10;1.58;;;12.90;99.90;;;;;;5030381;28;20124;-61
2022/09/16 07:31:01;;;;;;;11.23;3.08;;;12.80;99.90;;;;;;5033066;28;20034;-63
2022/09/16 07:33:28;;;;;;;10.70;2.13;;;13.50;99.90;;;;;;5030908;28;20448;-63
2022/09/16 07:35:58;;;;;;;15.95;2.38;;;13.80;99.90;;;;;;5030200;28;20040;-62
2022/09/16 07:38:23;;;;;;;11.98;2.40;;;13.10;99.90;;;;;;5022604;28;20091;-62
2022/09/16 07:40:49;;;;;;;10.23;1.88;;;13.20;99.90;;;;;;5030771;28;20497;-60
2022/09/16 07:43:14;;;;;;;12.15;3.10;;;13.20;99.90;;;;;;5032542;28;20042;-62
2022/09/16 07:45:40;;;;;;;12.50;2.20;;;13.20;99.90;;;;;;5013312;28;20131;-62
2022/09/16 07:48:05;;;;;;;10.82;2.85;;;13.30;99.90;;;;;;5029995;28;20080;-60
2022/09/16 07:50:31;;;;;;;20.38;2.92;;;13.30;99.90;;;;;;5032366;28;20418;-61
2022/09/16 07:52:57;;;;;;;10.57;2.22;;;13.00;99.90;;;;;;5008816;28;20038;-62
2022/09/16 07:55:22;;;;;;;11.25;2.20;;;13.20;99.90;;;;;;5014397;28;20037;-61
2022/09/16 07:57:48;;;;;;;8.65;1.90;;;12.90;99.90;;;;;;5031017;28;20033;-62
2022/09/16 08:00:15;;;;;;;15.48;2.17;;;12.90;99.90;;;;;;5032181;28;20403;-61
2022/09/16 08:02:40;;;;;;;11.32;2.20;;;13.10;99.90;;;;;;5029609;28;20046;-62
2022/09/16 08:05:08;;;;;;;7.30;1.83;;;13.00;99.90;;;;;;5030262;28;20034;-61
2022/09/16 08:07:33;;;;;;;9.55;1.88;;;13.00;99.90;;;;;;5001492;28;20510;-61
2022/09/16 08:09:59;;;;;;;8.55;2.13;;;12.90;99.90;;;;;;5007705;28;20034;-60
2022/09/16 08:12:24;;;;;;;9.93;2.38;;;13.10;99.90;;;;;;5028338;28;20060;-62
2022/09/16 08:14:50;;;;;;;7.72;1.65;;;12.90;99.90;;;;;;5025817;28;20041;-61
2022/09/16 08:17:16;;;;;;;8.80;1.70;;;13.20;99.90;;;;;;5030144;28;20036;-60
2022/09/16 08:19:41;;;;;;;6.15;1.60;;;13.00;99.90;;;;;;5022579;28;20045;-61
2022/09/16 08:22:07;;;;;;;7.25;1.77;;;13.20;99.90;;;;;;5024433;28;20034;-61
2022/09/16 08:24:32;;;;;;;6.22;1.50;;;12.80;99.90;;;;;;5041023;22;20471;-60
2022/09/16 08:26:58;;;;;;;9.63;1.88;;;13.00;99.90;;;;;;5027694;28;20087;-57
2022/09/16 08:29:24;;;;;;;11.27;2.38;;;13.30;99.90;;;;;;5030583;28;20029;-57
2022/09/16 08:31:50;;;;;;;6.38;1.60;;;13.80;99.90;;;;;;5011332;28;20041;-58
2022/09/16 08:34:16;;;;;;;10.73;2.17;;;13.30;99.90;;;;;;5031334;28;20037;-56
2022/09/16 08:36:43;;;;;;;8.77;1.73;;;13.10;99.90;;;;;;5030240;28;20041;-56
2022/09/16 08:39:10;;;;;;;13.57;2.67;;;13.10;99.90;;;;;;5026288;28;20045;-56
2022/09/16 08:41:45;;;;;;;6.47;1.88;;;13.30;99.90;;;;;;5025466;28;20033;-59
2022/09/16 08:44:13;;;;;;;;;;;14.20;99.90;;;;;;5024261;28;20044;-56
2022/09/16 08:46:45;;;;;;;7.68;2.08;;;13.90;99.90;;;;;;5026546;28;19923;-56
2022/09/16 08:49:32;;;;;;;9.98;1.60;;;13.70;99.90;;;;;;5019419;28;20060;-57
2022/09/16 08:52:01;;;;;;;7.35;1.30;;;14.00;99.90;;;;;;5025889;28;20056;-55
2022/09/16 08:54:37;;;;;;;9.55;1.63;;;14.00;99.90;;;;;;5028450;28;20444;-54
2022/09/16 08:57:05;;;;;;;5.57;1.25;;;13.60;99.90;;;;;;5023902;28;20167;-59
2022/09/16 08:59:39;;;;;;;5.60;1.40;;;13.90;99.90;;;;;;5027407;28;20444;-56
2022/09/16 09:02:29;;;;;;;9.63;1.65;;;13.90;99.90;;;;;;5026514;28;20033;-61
2022/09/16 09:04:55;;;;;;;8.55;2.15;;;14.60;99.90;;;;;;5026273;28;20041;-62
2022/09/16 09:07:32;;;;;;;11.20;1.80;;;14.30;99.90;;;;;;5011029;28;20033;-56
2022/09/16 09:10:23;;;;;;;9.48;1.95;;;14.10;99.90;;;;;;5022222;28;20513;-52
2022/09/16 09:13:06;;;;;;;8.40;2.10;;;14.40;99.90;;;;;;4984538;28;20052;-55
2022/09/16 09:15:56;;;;;;;9.50;1.85;;;14.60;99.90;;;;;;5019232;28;20423;-58
2022/09/16 09:18:28;;;;;;;15.00;2.17;;;;;;;;;;5017349;28;20315;-54
2022/09/16 09:21:40;;;;;;;7.65;1.95;;;15.30;99.90;;;;;;5001402;28;20081;-56
2022/09/16 09:24:38;;;;;;;8.88;1.65;;;15.60;99.90;;;;;;4960669;28;20146;-55
2022/09/16 09:27:09;;;;;;;8.85;1.90;;;14.90;99.90;;;;;;5018433;28;20037;-55
2022/09/16 09:29:54;;;;;;;9.27;1.75;;;14.50;99.90;;;;;;5023441;28;20464;-55
2022/09/16 09:32:46;;;;;;;8.65;2.00;;;14.20;99.90;;;;;;5025321;28;20038;-54
2022/09/16 09:35:31;;;;;;;15.88;2.28;;;14.10;99.90;;;;;;5029725;28;20411;-56
2022/09/16 09:38:08;;;;;;;11.10;2.60;;;14.20;99.90;;;;;;5007248;28;20038;-59
2022/09/16 09:40:41;;;;;;;9.80;2.22;;;14.20;99.90;;;;;;5023627;28;20453;-59
2022/09/16 09:43:22;;;;;;;5.78;2.05;;;14.20;99.90;;;;;;5006742;28;20041;-58
2022/09/16 09:46:18;;;;;;;4.57;1.70;;;14.40;99.90;;;;;;5025419;28;20038;-56
2022/09/16 09:48:50;;;;;;;6.20;1.75;;;14.40;99.90;;;;;;5028564;28;20226;-58
2022/09/16 09:51:21;;;;;;;5.93;1.30;;;14.60;99.90;;;;;;5022597;28;20034;-59
2022/09/16 09:53:53;;;;;;;9.43;2.30;;;14.70;99.90;;;;;;5027148;28;20510;-58
2022/09/16 09:56:33;;;;;;;9.23;2.45;;;14.90;99.90;;;;;;5021830;28;20109;-61
2022/09/16 09:59:28;;;;;;;9.20;1.73;;;14.50;99.90;;;;;;5025114;28;20041;-61
2022/09/16 10:01:55;;;;;;;8.55;1.33;;;15.60;99.90;;;;;;5019378;28;20529;-57
2022/09/16 10:04:21;;;;;;;5.35;1.25;;;;;;;;;;5030045;28;20103;-56
2022/09/16 10:06:49;;;;;;;5.32;1.50;;;15.00;99.90;;;;;;5034343;28;20513;-56
2022/09/16 10:09:16;;;;;;;11.13;2.08;;;15.70;99.90;;;;;;5016502;28;20473;-56
2022/09/16 10:11:56;;;;;;;7.57;1.95;;;15.10;99.90;;;;;;5033483;28;20045;-59
2022/09/16 10:14:32;;;;;;;8.90;1.70;;;16.00;99.90;;;;;;5036018;28;20336;-57
2022/09/16 10:17:04;;;;;;;7.70;1.73;;;15.70;99.90;;;;;;5014544;28;20041;-59
2022/09/16 10:19:34;;;;;;;10.07;2.53;;;14.90;99.90;;;;;;5034090;28;20044;-58
2022/09/16 10:22:30;;;;;;;10.75;2.47;;;15.50;99.90;;;;;;5033579;28;20061;-55
2022/09/16 10:25:05;;;;;;;7.10;1.58;;;15.30;99.90;;;;;;5009695;28;20045;-57
2022/09/16 10:27:36;;;;;;;11.68;2.83;;;15.10;99.90;;;;;;5027472;28;20029;-60
2022/09/16 10:30:09;;;;;;;11.20;2.80;;;16.00;99.90;;;;;;5031809;28;20046;-54
2022/09/16 10:32:55;;;;;;;11.18;2.33;;;15.30;99.90;;;;;;5027060;28;20048;-55
2022/09/16 10:35:26;;;;;;;8.45;1.70;;;15.30;99.90;;;;;;5031429;28;20118;-55
2022/09/16 10:37:58;;;;;;;9.02;1.92;;;15.00;99.90;;;;;;5019989;28;20038;-60
2022/09/16 10:40:25;;;;;;;10.15;1.63;;;15.10;99.90;;;;;;5023236;28;20045;-57
2022/09/16 10:42:53;;;;;;;8.45;1.90;;;16.60;99.90;;;;;;5021270;28;20348;-60
2022/09/16 10:45:27;;;;;;;12.88;2.13;;;16.10;99.90;;;;;;5032021;28;20142;-56
2022/09/16 10:47:54;;;;;;;;;;;16.40;99.90;;;;;;5026330;28;20042;-56
2022/09/16 10:50:20;;;;;;;9.75;1.70;;;16.50;99.90;;;;;;5029676;28;20003;-57
2022/09/16 10:52:47;;;;;;;12.60;1.77;;;15.40;99.90;;;;;;5022786;28;20076;-58
2022/09/16 10:55:24;;;;;;;7.63;1.55;;;15.40;99.90;;;;;;5024860;28;20588;-59
2022/09/16 10:57:50;;;;;;;9.88;1.85;;;16.40;99.90;;;;;;5025616;28;20091;-60
2022/09/16 11:00:25;;;;;;;8.98;1.40;;;16.50;99.90;;;;;;5008990;28;20464;-59
2022/09/16 11:03:15;;;;;;;12.38;1.98;;;15.70;99.90;;;;;;5029617;28;20099;-57
2022/09/16 11:06:19;;;;;;;7.85;1.80;;;15.50;99.90;;;;;;5019914;28;20048;-57
2022/09/16 11:08:54;;;;;;;7.47;1.92;;;16.30;99.90;;;;;;5000729;28;20076;-57
2022/09/16 11:11:41;;;;;;;5.72;1.20;;;16.20;99.90;;;;;;5032757;28;20029;-58
2022/09/16 11:14:27;;;;;;;8.80;1.63;;;16.40;99.90;;;;;;5027257;28;20053;-60
2022/09/16 11:17:19;;;;;;;8.10;1.95;;;16.60;99.90;;;;;;5028941;28;20038;-60
2022/09/16 11:20:15;;;;;;;7.25;1.80;;;17.00;99.90;;;;;;5023173;28;20034;-60
2022/09/16 11:23:03;;;;;;;7.82;1.65;;;16.60;99.90;;;;;;5005255;28;20080;-60
2022/09/16 11:25:43;;;;;;;37.13;4.88;;;17.00;99.90;;;;;;5017435;28;20407;-56
2022/09/16 11:28:43;;;;;;;7.97;1.50;;;16.80;99.90;;;;;;5019870;28;20033;-57
2022/09/16 11:31:30;;;;;;;8.20;1.77;;;16.80;99.90;;;;;;5032450;28;20431;-57
2022/09/16 11:34:17;;;;;;;9.60;1.80;;;16.80;99.90;;;;;;5021517;28;20037;-58
2022/09/16 11:36:57;;;;;;;9.93;2.50;;;17.50;99.90;;;;;;5023076;28;20384;-58
2022/09/16 11:39:50;;;;;;;10.10;2.40;;;16.80;99.90;;;;;;5025332;28;20100;-56
2022/09/16 11:42:21;;;;;;;9.75;1.88;;;17.20;99.90;;;;;;5014366;28;20038;-57
2022/09/16 11:45:07;;;;;;;9.63;2.40;;;17.30;99.90;;;;;;5030121;28;20163;-60
2022/09/16 11:47:48;;;;;;;7.90;1.80;;;17.90;99.90;;;;;;5014427;28;20064;-57
2022/09/16 11:50:35;;;;;;;10.82;1.88;;;17.70;99.90;;;;;;5024155;28;20095;-60
2022/09/16 11:53:20;;;;;;;8.90;2.22;;;17.80;99.90;;;;;;5020374;28;20503;-60
2022/09/16 11:55:50;;;;;;;8.50;2.10;;;18.40;99.90;;;;;;5025255;28;20041;-59
2022/09/16 11:58:40;;;;;;;8.75;2.28;;;18.60;99.90;;;;;;5001264;28;20038;-60
2022/09/16 12:01:17;;;;;;;8.30;1.60;;;17.70;99.90;;;;;;5016417;28;20160;-59
2022/09/16 12:03:57;;;;;;;13.38;2.33;;;19.70;99.90;;;;;;5018348;28;20092;-59
2022/09/16 12:06:30;;;;;;;12.73;2.42;;;20.00;99.90;;;;;;5025625;28;20541;-58
2022/09/16 12:09:06;;;;;;;14.52;2.83;;;21.20;99.90;;;;;;5019006;28;20381;-57
2022/09/16 12:12:04;;;;;;;11.13;2.40;;;21.30;99.90;;;;;;5027080;28;20254;-57
2022/09/16 12:14:41;;;;;;;16.13;3.15;;;22.10;99.90;;;;;;5030565;28;20049;-57
2022/09/16 12:17:19;;;;;;;12.02;2.67;;;21.80;99.90;;;;;;4999058;28;20034;-60
2022/09/16 12:20:18;;;;;;;12.07;2.53;;;22.50;99.90;;;;;;5008622;28;20045;-63
2022/09/16 12:23:17;;;;;;;11.52;2.80;;;21.00;99.90;;;;;;5021558;28;20081;-56
2022/09/16 12:26:04;;;;;;;10.95;2.42;;;20.50;99.90;;;;;;4969390;28;20470;-57
2022/09/16 12:28:58;;;;;;;14.43;2.75;;;20.00;99.90;;;;;;5024400;28;20112;-58
2022/09/16 12:31:47;;;;;;;10.40;2.50;;;19.10;99.90;;;;;;5010692;28;20419;-58
2022/09/16 12:34:32;;;;;;;14.02;3.42;;;19.30;99.90;;;;;;5015410;28;20084;-59
2022/09/16 12:37:09;;;;;;;12.05;2.47;;;18.20;99.90;;;;;;5024297;28;20116;-59
2022/09/16 12:39:34;;;;;;;14.05;2.92;;;18.00;99.90;;;;;;5017645;28;20525;-60
2022/09/16 12:42:21;;;;;;;17.75;2.70;;;18.90;99.90;;;;;;5021343;28;20116;-56
2022/09/16 12:45:01;;;;;;;12.32;2.53;;;19.60;99.90;;;;;;5022122;28;20069;-61
2022/09/16 12:47:58;;;;;;;8.75;2.28;;;20.20;99.90;;;;;;5022566;28;20041;-60
2022/09/16 12:50:45;;;;;;;11.18;2.58;;;20.30;99.90;;;;;;5017339;28;20561;-58
2022/09/16 12:53:32;;;;;;;12.60;2.72;;;20.50;99.90;;;;;;5025240;28;20092;-61
2022/09/16 12:56:33;;;;;;;13.77;2.55;;;20.00;99.90;;;;;;5015366;28;20400;-56
2022/09/16 12:59:20;;;;;;;10.07;2.72;;;20.10;99.90;;;;;;5023878;28;20378;-56
2022/09/16 13:01:50;;;;;;;11.90;3.58;;;19.80;99.90;;;;;;5029589;28;20061;-60
2022/09/16 13:04:45;;;;;;;11.80;2.40;;;19.60;99.90;;;;;;5016348;28;20046;-56
2022/09/16 13:07:19;;;;;;;;;;;18.30;99.90;;;;;;5019619;28;20091;-58
2022/09/16 13:09:46;;;;;;;13.20;2.42;;;18.50;99.90;;;;;;5012039;28;19921;-59
2022/09/16 13:12:25;;;;;;;10.02;2.55;;;17.50;99.90;;;;;;5030022;28;20499;-60
2022/09/16 13:15:03;;;;;;;13.35;2.40;;;17.30;99.90;;;;;;5029066;28;20061;-58
2022/09/16 13:17:32;;;;;;;14.70;2.85;;;17.80;99.90;;;;;;5028140;28;20041;-55
2022/09/16 13:20:25;;;;;;;14.45;2.35;;;17.40;99.90;;;;;;5027120;28;20495;-59
2022/09/16 13:23:16;;;;;;;14.32;2.50;;;17.00;99.90;;;;;;5018388;28;20404;-58
2022/09/16 13:25:48;;;;;;;10.50;2.33;;;17.40;99.90;;;;;;5018819;28;20407;-60
2022/09/16 13:28:42;;;;;;;12.25;3.10;;;16.90;99.90;;;;;;5017762;28;20037;-57
2022/09/16 13:31:19;;;;;;;14.43;2.35;;;;;;;;;;5017782;28;20030;-57